createdAt,value
2023-02-03T00:00:20.079Z,92.50
2023-02-03T00:03:05.589Z,92.50
2023-02-03T00:05:51.221Z,92.50
2023-02-03T00:08:38.524Z,92.50
2023-02-03T00:11:30.830Z,92.50
2023-02-03T00:14:17.243Z,92.50
2023-02-03T00:17:02.677Z,92.50
2023-02-03T00:19:48.149Z,92.50
2023-02-03T00:22:33.476Z,92.60
2023-02-03T00:25:18.974Z,92.50
2023-02-03T00:28:05.359Z,92.60
2023-02-03T00:30:54.127Z,92.70
2023-02-03T00:33:39.695Z,92.90
2023-02-03T00:36:26.945Z,93.00
2023-02-03T00:39:12.545Z,93.00
2023-02-03T00:41:57.899Z,93.00
2023-02-03T00:44:43.305Z,93.00
2023-02-03T00:47:28.760Z,93.00
2023-02-03T00:50:15.493Z,93.00
2023-02-03T00:53:00.891Z,93.00
2023-02-03T00:55:46.948Z,93.00
2023-02-03T00:58:32.245Z,93.00
2023-02-03T01:01:22.502Z,93.00
2023-02-03T01:04:08.900Z,93.00
2023-02-03T01:06:58.222Z,93.00
2023-02-03T01:09:43.749Z,93.00
2023-02-03T01:12:33.597Z,92.90
2023-02-03T01:15:19.052Z,93.20
2023-02-03T01:18:04.560Z,92.80
2023-02-03T01:20:50.176Z,92.80
2023-02-03T01:23:37.095Z,92.70
2023-02-03T01:26:24.910Z,92.70
2023-02-03T01:29:13.211Z,92.70
2023-02-03T01:32:03.992Z,92.60
2023-02-03T01:34:49.558Z,92.60
2023-02-03T01:37:35.008Z,92.40
2023-02-03T01:40:22.945Z,92.40
2023-02-03T01:43:11.682Z,92.20
2023-02-03T01:45:58.334Z,92.20
2023-02-03T01:48:44.474Z,92.00
2023-02-03T01:51:30.815Z,92.00
2023-02-03T01:54:25.214Z,91.90
2023-02-03T01:57:17.785Z,91.90
2023-02-03T02:00:05.435Z,91.70
2023-02-03T02:03:00.792Z,91.50
2023-02-03T02:06:03.076Z,91.30
2023-02-03T02:08:52.208Z,91.20
2023-02-03T02:11:37.611Z,91.20
2023-02-03T02:14:22.905Z,91.00
2023-02-03T02:17:25.770Z,91.00
2023-02-03T02:20:37.355Z,91.20
2023-02-03T02:23:59.795Z,90.70
2023-02-03T02:27:01.177Z,90.80
2023-02-03T02:30:17.220Z,90.80
2023-02-03T02:33:09.545Z,90.80
2023-02-03T02:36:45.824Z,90.80
2023-02-03T02:39:43.840Z,90.80
2023-02-03T02:42:40.795Z,91.00
2023-02-03T02:45:32.372Z,91.00
2023-02-03T02:48:29.948Z,91.10
2023-02-03T02:51:16.740Z,91.00
2023-02-03T02:54:06.290Z,91.00
2023-02-03T02:57:01.664Z,91.10
2023-02-03T02:59:51.242Z,91.00
2023-02-03T03:02:37.304Z,91.00
2023-02-03T03:05:24.044Z,91.00
2023-02-03T03:08:12.174Z,91.00
2023-02-03T03:11:00.693Z,90.90
2023-02-03T03:13:51.026Z,90.90
2023-02-03T03:16:42.228Z,90.90
2023-02-03T03:19:34.707Z,90.90
2023-02-03T03:22:27.139Z,90.90
2023-02-03T03:25:18.997Z,90.80
2023-02-03T03:28:11.799Z,90.80
2023-02-03T03:30:58.002Z,90.80
2023-02-03T03:33:44.406Z,90.70
2023-02-03T03:36:44.190Z,90.70
2023-02-03T03:39:41.661Z,90.70
2023-02-03T03:42:36.552Z,90.60
2023-02-03T03:45:32.272Z,90.50
2023-02-03T03:48:25.835Z,90.50
2023-02-03T03:51:33.525Z,90.50
2023-02-03T03:54:22.104Z,90.60
2023-02-03T03:57:18.201Z,90.60
2023-02-03T04:00:09.555Z,90.80
2023-02-03T04:03:08.448Z,90.70
2023-02-03T04:05:54.169Z,90.70
2023-02-03T04:08:42.626Z,90.70
2023-02-03T04:11:46.373Z,90.70
2023-02-03T04:14:38.705Z,90.70
2023-02-03T04:17:24.696Z,90.70
2023-02-03T04:20:10.545Z,90.80
2023-02-03T04:22:56.131Z,90.80
2023-02-03T04:25:41.617Z,90.80
2023-02-03T04:28:27.153Z,90.90
2023-02-03T04:31:12.928Z,90.90
2023-02-03T04:33:58.224Z,91.00
2023-02-03T04:36:43.912Z,91.20
2023-02-03T04:39:29.213Z,90.90
2023-02-03T04:42:14.744Z,90.90
2023-02-03T04:45:00.253Z,90.80
2023-02-03T04:47:45.793Z,90.80
2023-02-03T04:50:34.655Z,90.80
2023-02-03T04:53:25.569Z,90.80
2023-02-03T04:56:11.421Z,90.70
2023-02-03T04:58:56.829Z,90.70
2023-02-03T05:01:42.403Z,90.60
2023-02-03T05:04:38.132Z,90.60
2023-02-03T05:07:25.629Z,90.60
2023-02-03T05:10:11.183Z,90.60
2023-02-03T05:12:56.690Z,90.60
2023-02-03T05:15:42.235Z,90.60
2023-02-03T05:18:27.547Z,90.60
2023-02-03T05:21:13.191Z,90.50
2023-02-03T05:23:58.548Z,90.60
2023-02-03T05:26:44.018Z,90.50
2023-02-03T05:29:29.332Z,90.60
2023-02-03T05:32:14.855Z,90.60
2023-02-03T05:35:00.530Z,90.50
2023-02-03T05:37:46.183Z,90.60
2023-02-03T05:40:50.257Z,90.60
2023-02-03T05:43:38.279Z,90.60
2023-02-03T05:46:26.929Z,90.70
2023-02-03T05:49:12.267Z,90.70
2023-02-03T05:52:00.712Z,90.70
2023-02-03T05:54:46.548Z,90.70
2023-02-03T05:57:32.505Z,90.70
2023-02-03T06:00:18.653Z,90.70
2023-02-03T06:03:04.769Z,90.60
2023-02-03T06:05:50.424Z,90.90
2023-02-03T06:08:35.668Z,90.50
2023-02-03T06:11:27.173Z,90.50
2023-02-03T06:14:14.492Z,90.50
2023-02-03T06:17:00.601Z,90.40
2023-02-03T06:19:49.270Z,90.40
2023-02-03T06:22:35.827Z,90.40
2023-02-03T06:25:28.033Z,90.30
2023-02-03T06:28:13.389Z,90.40
2023-02-03T06:30:59.761Z,90.50
2023-02-03T06:33:45.461Z,90.40
2023-02-03T06:36:31.304Z,90.50
2023-02-03T06:39:16.554Z,90.70
2023-02-03T06:42:02.665Z,90.70
2023-02-03T06:44:51.705Z,90.80
2023-02-03T06:47:45.683Z,90.80
2023-02-03T06:50:31.112Z,90.80
2023-02-03T06:53:16.363Z,90.80
2023-02-03T06:56:03.419Z,90.80
2023-02-03T06:58:48.777Z,90.90
2023-02-03T07:01:34.436Z,90.90
2023-02-03T07:04:22.957Z,90.90
2023-02-03T07:07:12.737Z,90.90
2023-02-03T07:09:57.972Z,90.90
2023-02-03T07:12:44.377Z,91.00
2023-02-03T07:15:29.795Z,91.00
2023-02-03T07:18:30.892Z,90.90
2023-02-03T07:21:21.455Z,90.90
2023-02-03T07:24:06.818Z,91.00
2023-02-03T07:26:53.252Z,90.80
2023-02-03T07:29:41.189Z,90.90
2023-02-03T07:32:26.323Z,90.80
2023-02-03T07:35:11.939Z,90.90
2023-02-03T07:37:57.528Z,90.80
2023-02-03T07:40:42.851Z,90.80
2023-02-03T07:43:28.612Z,90.80
2023-02-03T07:46:14.065Z,90.80
2023-02-03T07:48:59.392Z,90.70
2023-02-03T07:51:50.759Z,90.70
2023-02-03T07:54:39.458Z,90.80
2023-02-03T07:57:28.488Z,90.80
2023-02-03T08:00:16.473Z,90.80
2023-02-03T08:03:05.044Z,90.80
2023-02-03T08:05:51.113Z,90.80
2023-02-03T08:08:37.460Z,90.80
2023-02-03T08:11:24.509Z,90.70
2023-02-03T08:14:10.005Z,90.70
2023-02-03T08:16:55.500Z,90.70
2023-02-03T08:19:41.155Z,90.80
2023-02-03T08:22:26.771Z,90.60
2023-02-03T08:25:14.997Z,90.50
2023-02-03T08:28:00.660Z,90.50
2023-02-03T08:30:48.895Z,90.50
2023-02-03T08:33:34.224Z,90.30
2023-02-03T08:36:19.479Z,90.10
2023-02-03T08:39:06.320Z,90.20
2023-02-03T08:41:51.588Z,90.20
2023-02-03T08:44:39.158Z,90.20
2023-02-03T08:47:25.263Z,90.00
2023-02-03T08:50:11.039Z,89.90
2023-02-03T08:52:56.782Z,89.60
2023-02-03T08:55:42.236Z,89.60
2023-02-03T08:58:27.763Z,89.70
2023-02-03T09:01:15.218Z,89.70
2023-02-03T09:04:04.366Z,89.70
2023-02-03T09:06:50.745Z,89.90
2023-02-03T09:09:39.446Z,89.50
2023-02-03T09:12:25.052Z,89.30
2023-02-03T09:15:12.950Z,89.10
2023-02-03T09:17:58.596Z,89.00
2023-02-03T09:20:44.263Z,89.00
2023-02-03T09:23:29.795Z,88.60
2023-02-03T09:26:17.173Z,88.40
2023-02-03T09:29:02.493Z,88.00
2023-02-03T09:31:53.026Z,87.90
2023-02-03T09:34:39.928Z,88.40
2023-02-03T09:37:25.541Z,88.00
2023-02-03T09:40:22.210Z,87.50
2023-02-03T09:43:18.027Z,88.00
2023-02-03T09:46:22.663Z,87.40
2023-02-03T09:49:21.337Z,87.30
2023-02-03T09:52:14.757Z,86.80
2023-02-03T09:55:20.422Z,87.20
2023-02-03T09:58:07.122Z,86.40
2023-02-03T10:01:06.327Z,86.30
2023-02-03T10:04:09.816Z,85.70
2023-02-03T10:07:25.620Z,85.30
2023-02-03T10:10:13.666Z,85.00
2023-02-03T10:13:31.293Z,84.50
2023-02-03T10:16:44.893Z,84.60
2023-02-03T10:19:46.094Z,84.30
2023-02-03T10:22:35.645Z,83.60
2023-02-03T10:25:33.646Z,83.70
2023-02-03T10:28:24.947Z,83.00
2023-02-03T10:31:19.855Z,83.10
2023-02-03T10:34:13.486Z,82.60
2023-02-03T10:37:11.566Z,82.30
2023-02-03T10:39:59.475Z,81.80
2023-02-03T10:43:06.823Z,81.70
2023-02-03T10:45:52.337Z,81.60
2023-02-03T10:48:37.571Z,81.50
2023-02-03T10:51:24.868Z,81.20
2023-02-03T10:54:33.813Z,80.70
2023-02-03T10:57:19.300Z,80.80
2023-02-03T11:00:24.139Z,80.80
2023-02-03T11:03:24.754Z,80.20
2023-02-03T11:06:14.195Z,80.60
2023-02-03T11:09:00.463Z,80.10
2023-02-03T11:11:45.757Z,80.00
2023-02-03T11:14:37.793Z,79.50
2023-02-03T11:17:29.711Z,79.50
2023-02-03T11:20:17.000Z,79.30
2023-02-03T11:23:04.627Z,79.50
2023-02-03T11:25:52.455Z,79.40
2023-02-03T11:28:43.333Z,79.20
2023-02-03T11:31:32.515Z,79.40
2023-02-03T11:34:31.292Z,79.90
2023-02-03T11:37:34.858Z,80.00
2023-02-03T11:40:29.692Z,80.00
2023-02-03T11:43:18.040Z,80.10
2023-02-03T11:46:10.087Z,80.10
2023-02-03T11:49:21.439Z,80.40
2023-02-03T11:52:38.206Z,80.60
2023-02-03T11:55:44.275Z,81.00
2023-02-03T11:58:44.661Z,81.30
2023-02-03T12:01:54.587Z,81.20
2023-02-03T12:05:00.938Z,81.20
2023-02-03T12:08:15.706Z,81.10
2023-02-03T12:11:32.405Z,81.50
2023-02-03T12:14:50.609Z,81.50
2023-02-03T12:17:45.867Z,81.60
2023-02-03T12:20:52.933Z,81.20
2023-02-03T12:23:55.713Z,81.20
2023-02-03T12:27:05.305Z,81.00
2023-02-03T12:30:10.149Z,80.80
2023-02-03T12:33:00.224Z,80.50
2023-02-03T12:36:00.642Z,80.80
2023-02-03T12:39:09.331Z,80.90
2023-02-03T12:42:04.746Z,80.70
2023-02-03T12:45:02.264Z,80.60
2023-02-03T12:47:55.585Z,80.50
2023-02-03T12:51:00.699Z,80.40
2023-02-03T12:53:55.416Z,80.10
2023-02-03T12:56:48.858Z,80.40
2023-02-03T12:59:41.973Z,80.30
2023-02-03T13:02:32.180Z,80.00
2023-02-03T13:05:28.602Z,79.80
2023-02-03T13:08:45.200Z,80.00
2023-02-03T13:12:08.240Z,80.40
2023-02-03T13:15:03.854Z,80.40
2023-02-03T13:18:09.516Z,80.90
2023-02-03T13:20:55.315Z,81.50
2023-02-03T13:23:44.868Z,82.10
2023-02-03T13:26:30.760Z,82.50
2023-02-03T13:29:36.989Z,82.90
2023-02-03T13:32:46.324Z,83.20
2023-02-03T13:35:47.588Z,84.40
2023-02-03T13:38:51.385Z,84.90
2023-02-03T13:41:53.875Z,85.50
2023-02-03T13:44:41.064Z,86.20
2023-02-03T13:47:29.788Z,86.80
2023-02-03T13:50:27.935Z,87.50
2023-02-03T13:53:26.078Z,88.00
2023-02-03T13:56:25.375Z,88.40
2023-02-03T13:59:14.096Z,88.80
2023-02-03T14:02:21.787Z,89.20
2023-02-03T14:05:29.584Z,89.70
2023-02-03T14:08:32.548Z,90.00
2023-02-03T14:11:36.520Z,90.30
2023-02-03T14:14:22.115Z,90.40
2023-02-03T14:17:33.592Z,90.60
2023-02-03T14:20:28.143Z,90.70
2023-02-03T14:23:33.987Z,90.80
2023-02-03T14:26:25.185Z,90.70
2023-02-03T14:29:32.531Z,90.80
2023-02-03T14:32:17.907Z,90.90
2023-02-03T14:35:19.100Z,90.90
2023-02-03T14:38:10.751Z,90.90
2023-02-03T14:41:06.212Z,90.90
2023-02-03T14:44:07.473Z,90.80
2023-02-03T14:47:11.786Z,90.80
2023-02-03T14:50:18.880Z,90.80
2023-02-03T14:53:31.200Z,90.80
2023-02-03T14:56:59.177Z,90.60
2023-02-03T14:59:58.274Z,90.70
2023-02-03T15:03:11.889Z,90.70
2023-02-03T15:06:05.355Z,90.80
2023-02-03T15:08:53.093Z,90.80
2023-02-03T15:11:45.269Z,90.70
2023-02-03T15:14:34.121Z,90.80
2023-02-03T15:17:26.818Z,90.80
2023-02-03T15:20:38.784Z,90.80
2023-02-03T15:23:29.507Z,90.80
2023-02-03T15:26:26.357Z,90.80
2023-02-03T15:29:28.053Z,90.90
2023-02-03T15:32:19.676Z,90.90
2023-02-03T15:35:09.949Z,91.00
2023-02-03T15:38:01.360Z,91.00
2023-02-03T15:40:54.664Z,91.00
2023-02-03T15:43:47.652Z,91.00
2023-02-03T15:46:45.436Z,91.00
2023-02-03T15:49:44.212Z,91.00
2023-02-03T15:52:31.587Z,91.00
2023-02-03T15:55:26.481Z,91.00
2023-02-03T15:58:19.347Z,91.00
2023-02-03T16:01:18.215Z,91.00
2023-02-03T16:04:14.430Z,91.00
2023-02-03T16:07:00.649Z,91.00
2023-02-03T16:09:46.415Z,91.00
2023-02-03T16:12:33.325Z,91.00
2023-02-03T16:15:28.549Z,91.00
2023-02-03T16:18:18.111Z,91.10
2023-02-03T16:21:05.517Z,91.00
2023-02-03T16:23:55.923Z,91.20
2023-02-03T16:26:41.219Z,91.30
2023-02-03T16:29:48.488Z,91.40
2023-02-03T16:32:52.397Z,91.50
2023-02-03T16:35:59.297Z,91.60
2023-02-03T16:39:07.883Z,91.60
2023-02-03T16:42:12.404Z,91.60
2023-02-03T16:45:17.597Z,91.70
2023-02-03T16:48:22.638Z,91.70
2023-02-03T16:51:15.923Z,91.70
2023-02-03T16:54:01.461Z,91.80
2023-02-03T16:56:48.280Z,91.80
2023-02-03T16:59:33.427Z,91.70
2023-02-03T17:02:19.043Z,91.80
2023-02-03T17:05:04.797Z,91.80
2023-02-03T17:07:51.320Z,91.80
2023-02-03T17:10:38.417Z,91.70
2023-02-03T17:13:25.510Z,91.70
2023-02-03T17:16:23.326Z,91.60
2023-02-03T17:19:12.611Z,91.60
2023-02-03T17:21:57.871Z,91.50
2023-02-03T17:24:43.705Z,91.40
2023-02-03T17:27:29.417Z,91.30
2023-02-03T17:30:17.966Z,91.10
2023-02-03T17:33:12.522Z,91.30
2023-02-03T17:36:06.037Z,91.20
2023-02-03T17:54:19.589Z,91.00
2023-02-03T17:57:05.672Z,91.10
2023-02-03T17:59:55.372Z,91.10
2023-02-03T18:02:42.565Z,91.10
2023-02-03T18:05:29.120Z,91.10
2023-02-03T18:08:16.335Z,91.20
2023-02-03T18:11:03.045Z,91.20
2023-02-03T18:13:50.144Z,91.40
2023-02-03T18:16:36.161Z,91.40
2023-02-03T18:19:21.802Z,91.50
2023-02-03T18:22:07.516Z,91.50
2023-02-03T18:24:53.025Z,91.50
2023-02-03T18:27:38.551Z,91.60
2023-02-03T18:30:23.868Z,91.60
2023-02-03T18:33:12.071Z,91.60
2023-02-03T18:35:58.581Z,91.60
2023-02-03T18:38:45.877Z,91.60
2023-02-03T18:41:31.421Z,91.60
2023-02-03T18:44:16.828Z,91.60
2023-02-03T18:47:07.142Z,91.60
2023-02-03T18:49:52.918Z,91.60
2023-02-03T18:52:38.438Z,91.60
2023-02-03T18:55:27.324Z,91.60
2023-02-03T18:58:16.151Z,91.50
2023-02-03T19:01:01.583Z,91.50
2023-02-03T19:03:46.879Z,91.50
2023-02-03T19:06:34.339Z,91.50
2023-02-03T19:09:25.609Z,91.50
2023-02-03T19:12:12.086Z,91.60
2023-02-03T19:14:57.513Z,91.50
2023-02-03T19:17:43.325Z,91.50
2023-02-03T19:20:29.287Z,91.60
2023-02-03T19:23:23.759Z,91.50
2023-02-03T19:26:10.080Z,91.60
2023-02-03T19:28:58.281Z,91.60
2023-02-03T19:31:43.974Z,91.60
2023-02-03T19:34:30.247Z,91.40
2023-02-03T19:37:15.814Z,91.20
2023-02-03T19:40:02.870Z,91.10
2023-02-03T19:42:49.049Z,90.90
2023-02-03T19:45:40.632Z,91.20
2023-02-03T19:48:26.472Z,90.80
2023-02-03T19:51:28.218Z,90.80
2023-02-03T19:54:15.343Z,90.50
2023-02-03T19:57:01.955Z,90.30
2023-02-03T19:59:51.344Z,90.10
2023-02-03T20:02:38.034Z,89.80
2023-02-03T20:05:23.826Z,89.60
2023-02-03T20:08:12.902Z,89.20
2023-02-03T20:10:58.531Z,89.30
2023-02-03T20:13:47.520Z,89.10
2023-02-03T20:16:35.883Z,89.20
2023-02-03T20:19:21.381Z,89.40
2023-02-03T20:22:12.198Z,89.60
2023-02-03T20:25:01.652Z,89.80
2023-02-03T20:27:49.940Z,90.00
2023-02-03T20:30:35.712Z,90.00
2023-02-03T20:33:21.284Z,90.10
2023-02-03T20:36:07.377Z,90.20
2023-02-03T20:38:55.689Z,90.60
2023-02-03T20:41:41.020Z,90.20
2023-02-03T20:44:26.659Z,90.20
2023-02-03T20:47:14.281Z,90.30
2023-02-03T20:49:59.691Z,90.40
2023-02-03T20:52:46.802Z,90.50
2023-02-03T20:55:32.142Z,90.90
2023-02-03T20:58:19.007Z,90.60
2023-02-03T21:01:13.853Z,90.70
2023-02-03T21:04:17.964Z,90.80
2023-02-03T21:07:14.713Z,90.90
2023-02-03T21:10:00.042Z,91.00
2023-02-03T21:12:45.853Z,91.10
2023-02-03T21:15:34.776Z,91.20
2023-02-03T21:18:25.568Z,91.30
2023-02-03T21:21:25.074Z,91.30
2023-02-03T21:24:51.081Z,91.40
2023-02-03T21:27:36.690Z,91.60
2023-02-03T21:30:32.609Z,91.70
2023-02-03T21:33:34.103Z,91.80
2023-02-03T21:36:24.270Z,91.90
2023-02-03T21:39:33.883Z,91.90
2023-02-03T21:42:43.576Z,92.40
2023-02-03T21:45:41.039Z,92.10
2023-02-03T21:48:48.516Z,92.30
2023-02-03T21:51:38.269Z,92.30
2023-02-03T21:54:26.767Z,92.30
2023-02-03T21:57:20.625Z,92.40
2023-02-03T22:00:37.523Z,92.60
2023-02-03T22:03:25.716Z,92.70
2023-02-03T22:06:45.684Z,92.60
2023-02-03T22:09:31.226Z,92.70
2023-02-03T22:12:16.545Z,92.80
2023-02-03T22:15:02.071Z,92.80
2023-02-03T22:17:49.895Z,92.90
2023-02-03T22:20:35.845Z,92.90
2023-02-03T22:23:21.523Z,92.90
2023-02-03T22:26:08.382Z,93.00
2023-02-03T22:28:57.234Z,93.00
2023-02-03T22:31:42.944Z,93.00
2023-02-03T22:34:28.555Z,93.10
2023-02-03T22:37:13.973Z,93.10
2023-02-03T22:39:59.713Z,93.10
2023-02-03T22:42:45.454Z,93.10
2023-02-03T22:45:30.913Z,93.20
2023-02-03T22:48:16.152Z,93.30
2023-02-03T22:51:01.840Z,93.30
2023-02-03T22:53:47.640Z,93.30
2023-02-03T22:56:32.933Z,93.30
2023-02-03T22:59:18.144Z,93.40
2023-02-03T23:02:03.948Z,93.40
2023-02-03T23:04:50.361Z,93.50
2023-02-03T23:07:37.082Z,93.60
2023-02-03T23:10:31.103Z,93.70
2023-02-03T23:13:17.038Z,93.60
2023-02-03T23:16:04.818Z,93.60
2023-02-03T23:18:52.765Z,93.60
2023-02-03T23:21:38.336Z,93.60
2023-02-03T23:24:23.786Z,93.70
2023-02-03T23:27:12.691Z,93.70
2023-02-03T23:30:00.844Z,93.60
2023-02-03T23:32:46.308Z,93.70
2023-02-03T23:35:47.008Z,93.70
2023-02-03T23:38:36.270Z,93.70
2023-02-03T23:41:21.853Z,93.70
2023-02-03T23:44:07.181Z,93.70
2023-02-03T23:46:54.610Z,93.80
2023-02-03T23:49:40.122Z,93.80
2023-02-03T23:52:25.596Z,93.80
2023-02-03T23:55:19.507Z,93.80
2023-02-03T23:58:05.120Z,93.90
